createdAt,value
2023-07-30T00:00:38.177Z,56.64
2023-07-30T00:03:04.824Z,57.02
2023-07-30T00:05:31.533Z,56.83
2023-07-30T00:07:58.128Z,57.00
2023-07-30T00:10:24.727Z,56.91
2023-07-30T00:12:51.299Z,56.65
2023-07-30T00:15:17.925Z,56.93
2023-07-30T00:17:44.472Z,56.85
2023-07-30T00:20:11.196Z,56.83
2023-07-30T00:22:37.698Z,56.65
2023-07-30T00:25:04.722Z,57.11
2023-07-30T00:27:31.378Z,56.62
2023-07-30T00:29:57.962Z,56.62
2023-07-30T00:32:24.551Z,57.05
2023-07-30T00:34:51.122Z,57.01
2023-07-30T00:37:17.656Z,57.07
2023-07-30T00:39:44.174Z,56.80
2023-07-30T00:42:10.710Z,56.78
2023-07-30T00:44:37.228Z,56.95
2023-07-30T00:47:04.500Z,56.70
2023-07-30T00:49:31.132Z,56.79
2023-07-30T00:51:57.783Z,56.94
2023-07-30T00:54:24.816Z,56.44
2023-07-30T00:56:53.162Z,56.64
2023-07-30T00:59:23.052Z,56.69
2023-07-30T01:01:49.616Z,56.57
2023-07-30T01:04:16.617Z,56.45
2023-07-30T01:06:43.567Z,56.94
2023-07-30T01:09:10.484Z,56.53
2023-07-30T01:11:38.200Z,56.87
2023-07-30T01:14:06.224Z,56.56
2023-07-30T01:16:32.977Z,56.79
2023-07-30T01:19:00.192Z,56.76
2023-07-30T01:21:26.763Z,56.63
2023-07-30T01:23:53.318Z,56.90
2023-07-30T01:26:21.989Z,56.59
2023-07-30T01:28:50.160Z,56.60
2023-07-30T01:31:17.229Z,56.50
2023-07-30T01:33:44.375Z,56.58
2023-07-30T01:36:11.825Z,56.99
2023-07-30T01:38:38.914Z,56.59
2023-07-30T01:41:05.576Z,57.02
2023-07-30T01:44:03.003Z,56.57
2023-07-30T01:46:29.637Z,56.71
2023-07-30T01:48:56.164Z,56.88
2023-07-30T01:51:22.725Z,56.53
2023-07-30T01:53:49.234Z,56.72
2023-07-30T01:56:15.799Z,56.72
2023-07-30T01:58:42.362Z,56.48
2023-07-30T02:01:09.035Z,56.48
2023-07-30T02:03:35.758Z,56.70
2023-07-30T02:06:02.522Z,57.02
2023-07-30T02:08:29.037Z,56.94
2023-07-30T02:10:57.640Z,57.05
2023-07-30T02:13:24.978Z,56.77
2023-07-30T02:15:51.537Z,56.63
2023-07-30T02:18:18.104Z,56.73
2023-07-30T02:20:44.679Z,56.95
2023-07-30T02:23:11.242Z,56.67
2023-07-30T02:25:38.940Z,56.60
2023-07-30T02:28:05.567Z,56.87
2023-07-30T02:30:32.141Z,56.76
2023-07-30T02:32:58.743Z,56.72
2023-07-30T02:35:25.323Z,56.95
2023-07-30T02:37:51.914Z,56.56
2023-07-30T02:40:18.484Z,57.05
2023-07-30T02:42:45.229Z,56.67
2023-07-30T02:45:11.781Z,56.80
2023-07-30T02:47:38.338Z,56.96
2023-07-30T02:50:05.801Z,56.71
2023-07-30T02:52:32.402Z,56.96
2023-07-30T02:54:58.944Z,56.99
2023-07-30T02:57:25.471Z,56.93
2023-07-30T02:59:52.015Z,56.76
2023-07-30T03:02:18.598Z,56.60
2023-07-30T03:04:45.147Z,57.06
2023-07-30T03:07:11.757Z,57.04
2023-07-30T03:09:38.256Z,56.80
2023-07-30T03:12:05.059Z,56.90
2023-07-30T03:14:31.654Z,56.62
2023-07-30T03:16:58.210Z,56.73
2023-07-30T03:19:24.851Z,57.00
2023-07-30T03:21:51.534Z,57.09
2023-07-30T03:24:18.050Z,56.74
2023-07-30T03:26:44.611Z,56.79
2023-07-30T03:29:11.166Z,57.14
2023-07-30T03:31:38.061Z,56.84
2023-07-30T03:34:04.813Z,56.74
2023-07-30T03:36:31.377Z,56.74
2023-07-30T03:38:58.080Z,56.60
2023-07-30T03:41:24.666Z,56.94
2023-07-30T03:43:51.255Z,57.06
2023-07-30T03:46:17.997Z,56.70
2023-07-30T03:48:44.567Z,56.57
2023-07-30T03:51:11.180Z,56.71
2023-07-30T03:53:37.720Z,57.00
2023-07-30T03:56:04.290Z,56.64
2023-07-30T03:58:31.865Z,57.12
2023-07-30T04:00:58.453Z,57.16
2023-07-30T04:03:25.172Z,56.96
2023-07-30T04:05:51.774Z,56.96
2023-07-30T04:08:18.628Z,56.63
2023-07-30T04:10:45.235Z,57.09
2023-07-30T04:13:11.789Z,56.62
2023-07-30T04:15:38.355Z,56.66
2023-07-30T04:18:05.020Z,56.74
2023-07-30T04:20:31.578Z,57.12
2023-07-30T04:22:58.273Z,56.95
2023-07-30T04:25:24.833Z,57.13
2023-07-30T04:27:51.456Z,56.72
2023-07-30T04:30:18.042Z,56.84
2023-07-30T04:32:44.650Z,57.08
2023-07-30T04:35:11.261Z,56.56
2023-07-30T04:37:37.854Z,57.05
2023-07-30T04:40:04.806Z,56.93
2023-07-30T04:42:31.357Z,56.56
2023-07-30T04:44:57.890Z,56.76
2023-07-30T04:47:24.454Z,56.67
2023-07-30T04:49:51.010Z,56.97
2023-07-30T04:52:17.537Z,56.63
2023-07-30T04:54:44.160Z,56.79
2023-07-30T04:57:10.717Z,56.89
2023-07-30T04:59:37.311Z,57.00
2023-07-30T05:02:04.006Z,56.99
2023-07-30T05:04:30.673Z,56.64
2023-07-30T05:06:57.227Z,56.86
2023-07-30T05:09:23.798Z,56.62
2023-07-30T05:11:50.469Z,56.76
2023-07-30T05:14:17.011Z,56.76
2023-07-30T05:16:43.615Z,56.77
2023-07-30T05:19:10.234Z,56.56
2023-07-30T05:21:37.039Z,56.63
2023-07-30T05:24:04.019Z,56.75
2023-07-30T05:26:30.559Z,56.66
2023-07-30T05:28:57.089Z,56.50
2023-07-30T05:31:24.021Z,57.12
2023-07-30T05:33:50.597Z,57.00
2023-07-30T05:36:17.189Z,56.75
2023-07-30T05:38:43.781Z,56.60
2023-07-30T05:41:10.322Z,56.79
2023-07-30T05:43:36.923Z,56.96
2023-07-30T05:46:03.544Z,57.04
2023-07-30T05:48:30.158Z,56.95
2023-07-30T05:50:56.885Z,56.97
2023-07-30T05:53:23.463Z,57.05
2023-07-30T05:55:50.046Z,56.97
2023-07-30T05:58:16.599Z,56.74
2023-07-30T06:00:43.210Z,56.92
2023-07-30T06:03:10.877Z,56.98
2023-07-30T06:05:43.898Z,56.60
2023-07-30T06:08:10.575Z,56.65
2023-07-30T06:10:37.898Z,56.69
2023-07-30T06:13:05.239Z,56.86
2023-07-30T06:15:32.322Z,56.88
2023-07-30T06:17:58.903Z,56.71
2023-07-30T06:20:25.561Z,56.77
2023-07-30T06:22:52.112Z,56.89
2023-07-30T06:25:18.625Z,56.78
2023-07-30T06:27:45.147Z,56.67
2023-07-30T06:30:12.134Z,56.79
2023-07-30T06:32:38.700Z,57.07
2023-07-30T06:35:06.030Z,56.56
2023-07-30T06:37:32.580Z,56.78
2023-07-30T06:39:59.135Z,56.72
2023-07-30T06:42:25.695Z,56.99
2023-07-30T06:44:52.241Z,56.93
2023-07-30T06:47:18.769Z,56.68
2023-07-30T06:49:45.385Z,56.80
2023-07-30T06:52:11.938Z,57.07
2023-07-30T06:54:40.100Z,56.91
2023-07-30T06:57:06.922Z,56.69
2023-07-30T06:59:34.338Z,56.67
2023-07-30T07:02:00.901Z,56.57
2023-07-30T07:04:27.477Z,56.67
2023-07-30T07:06:54.052Z,57.13
2023-07-30T07:09:20.602Z,56.65
2023-07-30T07:11:47.467Z,56.98
2023-07-30T07:14:13.964Z,56.84
2023-07-30T07:16:40.537Z,56.81
2023-07-30T07:19:07.249Z,56.86
2023-07-30T07:21:33.820Z,56.97
2023-07-30T07:24:00.420Z,56.83
2023-07-30T07:26:27.025Z,56.68
2023-07-30T07:28:53.545Z,56.92
2023-07-30T07:31:20.125Z,56.81
2023-07-30T07:33:46.806Z,56.96
2023-07-30T07:36:15.196Z,56.64
2023-07-30T07:38:41.821Z,56.77
2023-07-30T07:41:08.366Z,56.63
2023-07-30T07:43:34.930Z,56.61
2023-07-30T07:46:01.567Z,57.08
2023-07-30T07:48:28.199Z,56.83
2023-07-30T07:50:54.734Z,56.81
2023-07-30T07:53:21.289Z,56.81
2023-07-30T07:55:47.852Z,56.65
2023-07-30T07:58:14.360Z,56.69
2023-07-30T08:00:40.955Z,56.73
2023-07-30T08:03:07.621Z,56.73
2023-07-30T08:05:34.311Z,56.93
2023-07-30T08:08:00.859Z,56.71
2023-07-30T08:10:27.397Z,56.68
2023-07-30T08:12:54.010Z,56.66
2023-07-30T08:15:20.636Z,56.67
2023-07-30T08:17:47.654Z,57.04
2023-07-30T08:20:14.488Z,57.09
2023-07-30T08:22:41.035Z,56.72
2023-07-30T08:25:08.136Z,57.01
2023-07-30T08:27:34.688Z,56.85
2023-07-30T08:30:01.288Z,56.65
2023-07-30T08:32:27.944Z,57.06
2023-07-30T08:34:54.549Z,56.61
2023-07-30T08:37:21.067Z,56.80
2023-07-30T08:39:50.106Z,56.68
2023-07-30T08:42:16.976Z,57.04
2023-07-30T08:44:43.504Z,56.67
2023-07-30T08:47:10.457Z,57.06
2023-07-30T08:49:36.999Z,56.76
2023-07-30T08:52:04.273Z,56.97
2023-07-30T08:54:31.730Z,56.93
2023-07-30T08:56:59.208Z,56.56
2023-07-30T08:59:25.854Z,57.05
2023-07-30T09:01:52.699Z,56.63
2023-07-30T09:04:19.591Z,56.88
2023-07-30T09:06:53.108Z,56.69
2023-07-30T09:09:20.341Z,56.72
2023-07-30T09:11:53.374Z,56.54
2023-07-30T09:14:20.917Z,56.61
2023-07-30T09:16:47.426Z,57.02
2023-07-30T09:19:18.480Z,57.09
2023-07-30T09:21:45.195Z,57.06
2023-07-30T09:24:11.776Z,57.04
2023-07-30T09:26:46.462Z,56.90
2023-07-30T09:29:13.119Z,56.81
2023-07-30T09:31:50.085Z,57.00
2023-07-30T09:34:18.286Z,56.72
2023-07-30T09:36:50.028Z,57.00
2023-07-30T09:39:19.495Z,56.81
2023-07-30T09:41:46.797Z,56.78
2023-07-30T09:44:14.171Z,56.68
2023-07-30T09:46:45.201Z,56.80
2023-07-30T09:49:12.001Z,56.74
2023-07-30T09:51:41.928Z,57.09
2023-07-30T09:54:09.495Z,56.61
2023-07-30T09:56:37.354Z,56.92
2023-07-30T09:59:05.647Z,56.72
2023-07-30T10:01:32.338Z,56.88
2023-07-30T10:03:58.982Z,57.01
2023-07-30T10:06:29.626Z,56.82
2023-07-30T10:08:57.011Z,56.78
2023-07-30T10:11:23.636Z,57.08
2023-07-30T10:13:50.166Z,56.58
2023-07-30T10:16:16.922Z,56.85
2023-07-30T10:18:44.052Z,56.69
2023-07-30T10:21:11.642Z,56.96
2023-07-30T10:23:47.322Z,56.57
2023-07-30T10:26:13.884Z,56.58
2023-07-30T10:28:44.676Z,56.92
2023-07-30T10:31:13.094Z,56.88
2023-07-30T10:33:46.315Z,56.98
2023-07-30T10:36:12.848Z,56.96
2023-07-30T10:38:39.376Z,56.94
2023-07-30T10:41:08.006Z,57.12
2023-07-30T10:43:41.479Z,57.00
2023-07-30T10:46:12.830Z,56.90
2023-07-30T10:48:40.756Z,56.86
2023-07-30T10:51:09.206Z,56.92
2023-07-30T10:53:40.430Z,56.58
2023-07-30T10:56:08.060Z,57.08
2023-07-30T10:58:35.680Z,56.69
2023-07-30T11:01:06.121Z,56.88
2023-07-30T11:03:33.308Z,56.98
2023-07-30T11:06:00.207Z,57.04
2023-07-30T11:08:40.273Z,56.60
2023-07-30T11:11:07.601Z,56.73
2023-07-30T11:13:41.092Z,57.07
2023-07-30T11:16:08.424Z,56.80
2023-07-30T11:18:35.549Z,56.71
2023-07-30T11:21:09.884Z,57.06
2023-07-30T11:23:37.305Z,56.64
2023-07-30T11:26:04.545Z,56.98
2023-07-30T11:28:37.450Z,56.59
2023-07-30T11:31:15.035Z,57.00
2023-07-30T11:33:43.825Z,56.61
2023-07-30T11:36:18.507Z,57.06
2023-07-30T11:38:45.648Z,56.69
2023-07-30T11:41:12.202Z,57.06
2023-07-30T11:43:43.480Z,56.93
2023-07-30T11:46:17.212Z,56.75
2023-07-30T11:48:45.486Z,57.02
2023-07-30T11:51:21.837Z,56.88
2023-07-30T11:53:50.420Z,56.64
2023-07-30T11:56:19.041Z,57.20
2023-07-30T11:58:45.611Z,56.66
2023-07-30T12:01:12.233Z,56.78
2023-07-30T12:03:39.055Z,57.00
2023-07-30T12:06:07.017Z,56.94
2023-07-30T12:08:35.046Z,56.83
2023-07-30T12:11:07.936Z,56.54
2023-07-30T12:13:35.007Z,56.57
2023-07-30T12:16:01.565Z,56.92
2023-07-30T12:18:30.107Z,56.69
2023-07-30T12:20:57.408Z,56.93
2023-07-30T12:23:24.045Z,57.13
2023-07-30T12:25:51.419Z,57.16
2023-07-30T12:28:18.027Z,56.69
2023-07-30T12:30:44.635Z,56.85
2023-07-30T12:33:11.201Z,56.58
2023-07-30T12:35:37.735Z,56.82
2023-07-30T12:38:04.228Z,56.57
2023-07-30T12:40:34.903Z,56.88
2023-07-30T12:43:02.962Z,56.85
2023-07-30T12:45:30.377Z,57.01
2023-07-30T12:47:56.999Z,57.07
2023-07-30T12:50:23.638Z,56.63
2023-07-30T12:52:50.238Z,56.90
2023-07-30T12:55:16.880Z,56.65
2023-07-30T12:57:43.644Z,56.71
2023-07-30T13:00:10.807Z,56.61
2023-07-30T13:02:37.550Z,56.73
2023-07-30T13:05:07.251Z,57.08
2023-07-30T13:07:33.830Z,57.10
2023-07-30T13:10:07.398Z,57.10
2023-07-30T13:12:34.086Z,57.06
2023-07-30T13:15:00.824Z,56.80
2023-07-30T13:17:27.406Z,57.01
2023-07-30T13:19:54.010Z,57.08
2023-07-30T13:22:20.564Z,57.10
2023-07-30T13:24:47.157Z,56.82
2023-07-30T13:27:13.701Z,56.68
2023-07-30T13:29:40.445Z,56.73
2023-07-30T13:32:07.466Z,57.12
2023-07-30T13:34:34.019Z,56.78
2023-07-30T13:37:00.536Z,56.98
2023-07-30T13:39:27.076Z,56.74
2023-07-30T13:41:53.574Z,57.06
2023-07-30T13:44:21.047Z,56.80
2023-07-30T13:46:47.724Z,56.80
2023-07-30T13:49:14.282Z,57.12
2023-07-30T13:51:41.096Z,56.71
2023-07-30T13:54:09.201Z,56.78
2023-07-30T13:56:35.904Z,56.99
2023-07-30T13:59:02.417Z,57.01
2023-07-30T14:01:29.612Z,56.50
2023-07-30T14:03:56.445Z,56.67
2023-07-30T14:06:23.319Z,57.10
2023-07-30T14:08:50.046Z,56.95
2023-07-30T14:11:16.589Z,57.06
2023-07-30T14:13:43.151Z,56.83
2023-07-30T14:16:09.799Z,56.63
2023-07-30T14:18:36.568Z,57.01
2023-07-30T14:21:03.887Z,57.01
2023-07-30T14:23:30.430Z,57.02
2023-07-30T14:25:56.948Z,57.01
2023-07-30T14:28:23.551Z,56.92
2023-07-30T14:30:50.180Z,57.10
2023-07-30T14:33:16.806Z,56.53
2023-07-30T14:35:43.601Z,56.90
2023-07-30T14:38:10.974Z,57.09
2023-07-30T14:40:37.506Z,57.17
2023-07-30T14:43:04.131Z,57.10
2023-07-30T14:45:30.696Z,56.68
2023-07-30T14:47:58.107Z,57.11
2023-07-30T14:50:24.627Z,56.86
2023-07-30T14:52:51.201Z,57.17
2023-07-30T14:55:17.821Z,56.69
2023-07-30T14:57:44.354Z,56.96
2023-07-30T15:00:14.148Z,57.02
2023-07-30T15:02:41.805Z,57.09
2023-07-30T15:05:09.041Z,57.13
2023-07-30T15:07:35.664Z,56.86
2023-07-30T15:10:02.426Z,56.86
2023-07-30T15:12:30.775Z,56.63
2023-07-30T15:14:59.135Z,56.74
2023-07-30T15:17:25.802Z,56.79
2023-07-30T15:19:53.480Z,56.66
2023-07-30T15:22:20.244Z,56.78
2023-07-30T15:24:46.848Z,57.18
2023-07-30T15:27:13.444Z,57.06
2023-07-30T15:29:40.010Z,56.99
2023-07-30T15:32:06.849Z,56.72
2023-07-30T15:34:33.361Z,57.25
2023-07-30T15:37:01.476Z,56.94
2023-07-30T15:39:28.062Z,56.66
2023-07-30T15:41:54.593Z,56.61
2023-07-30T15:44:21.166Z,57.09
2023-07-30T15:46:47.946Z,57.07
2023-07-30T15:49:14.554Z,57.00
2023-07-30T15:51:41.152Z,56.66
2023-07-30T15:54:07.696Z,56.72
2023-07-30T15:56:34.253Z,57.24
2023-07-30T15:59:00.852Z,56.97
2023-07-30T16:01:27.510Z,56.73
2023-07-30T16:03:54.026Z,56.97
2023-07-30T16:06:23.241Z,57.29
2023-07-30T16:08:49.797Z,56.98
2023-07-30T16:11:16.977Z,56.99
2023-07-30T16:13:43.555Z,57.04
2023-07-30T16:16:18.564Z,57.25
2023-07-30T16:18:47.207Z,56.90
2023-07-30T16:21:13.783Z,57.20
2023-07-30T16:23:40.320Z,57.20
2023-07-30T16:26:07.692Z,56.96
2023-07-30T16:28:34.343Z,57.06
2023-07-30T16:31:01.124Z,56.92
2023-07-30T16:33:28.055Z,57.22
2023-07-30T16:35:54.760Z,56.90
2023-07-30T16:38:21.362Z,56.80
2023-07-30T16:40:48.057Z,57.12
2023-07-30T16:43:15.226Z,57.30
2023-07-30T16:45:41.823Z,57.24
2023-07-30T16:48:08.460Z,56.70
2023-07-30T16:50:35.001Z,56.84
2023-07-30T16:53:01.652Z,57.14
2023-07-30T16:55:34.712Z,57.49
2023-07-30T16:58:02.963Z,57.35
2023-07-30T17:00:30.262Z,57.08
2023-07-30T17:03:10.405Z,57.01
2023-07-30T17:05:36.970Z,57.47
2023-07-30T17:08:03.625Z,57.02
2023-07-30T17:10:30.170Z,56.88
2023-07-30T17:12:57.334Z,57.40
2023-07-30T17:15:23.943Z,57.23
2023-07-30T17:17:50.522Z,57.01
2023-07-30T17:20:17.193Z,56.90
2023-07-30T17:22:43.722Z,57.07
2023-07-30T17:25:10.293Z,57.09
2023-07-30T17:27:36.853Z,56.85
2023-07-30T17:30:03.570Z,57.40
2023-07-30T17:32:30.506Z,57.22
2023-07-30T17:34:57.284Z,57.25
2023-07-30T17:37:23.857Z,57.07
2023-07-30T17:39:50.578Z,57.06
2023-07-30T17:42:17.129Z,57.24
2023-07-30T17:44:45.474Z,57.04
2023-07-30T17:47:12.063Z,57.31
2023-07-30T17:49:38.705Z,57.06
2023-07-30T17:52:05.475Z,57.35
2023-07-30T17:54:32.116Z,57.00
2023-07-30T17:56:58.740Z,57.09
2023-07-30T17:59:26.720Z,57.11
2023-07-30T18:01:53.305Z,56.94
2023-07-30T18:04:19.999Z,57.41
2023-07-30T18:06:46.577Z,57.08
2023-07-30T18:09:13.102Z,57.02
2023-07-30T18:11:41.384Z,57.04
2023-07-30T18:14:10.609Z,57.35
2023-07-30T18:16:37.493Z,57.43
2023-07-30T18:19:04.386Z,57.53
2023-07-30T18:21:30.967Z,57.30
2023-07-30T18:23:57.513Z,57.35
2023-07-30T18:26:24.024Z,57.60
2023-07-30T18:28:51.577Z,57.26
2023-07-30T18:31:18.210Z,57.25
2023-07-30T18:33:44.845Z,57.63
2023-07-30T18:36:11.396Z,57.52
2023-07-30T18:38:38.226Z,57.72
2023-07-30T18:41:08.801Z,57.46
2023-07-30T18:43:35.470Z,57.49
2023-07-30T18:46:02.132Z,57.55
2023-07-30T18:48:32.668Z,57.58
2023-07-30T18:50:59.302Z,57.33
2023-07-30T18:53:26.024Z,57.64
2023-07-30T18:55:52.866Z,57.69
2023-07-30T18:58:19.481Z,57.74
2023-07-30T19:00:48.072Z,57.79
2023-07-30T19:03:15.075Z,57.69
2023-07-30T19:05:41.696Z,57.41
2023-07-30T19:08:08.238Z,57.27
2023-07-30T19:10:34.792Z,57.84
2023-07-30T19:13:01.316Z,57.87
2023-07-30T19:15:28.780Z,57.62
2023-07-30T19:17:55.378Z,57.33
2023-07-30T19:20:21.953Z,57.26
2023-07-30T19:22:48.506Z,57.48
2023-07-30T19:25:15.524Z,57.80
2023-07-30T19:27:42.109Z,57.50
2023-07-30T19:30:09.565Z,57.64
2023-07-30T19:32:36.863Z,57.44
2023-07-30T19:35:03.922Z,57.62
2023-07-30T19:37:30.463Z,57.86
2023-07-30T19:39:57.111Z,57.53
2023-07-30T19:42:23.994Z,57.50
2023-07-30T19:44:50.576Z,57.58
2023-07-30T19:47:20.687Z,57.90
2023-07-30T19:49:47.734Z,58.04
2023-07-30T19:52:14.889Z,57.95
2023-07-30T19:54:41.426Z,57.54
2023-07-30T19:57:07.959Z,57.74
2023-07-30T19:59:34.760Z,57.98
2023-07-30T20:02:01.318Z,58.05
2023-07-30T20:04:27.906Z,57.59
2023-07-30T20:06:55.289Z,57.88
2023-07-30T20:09:21.846Z,57.89
2023-07-30T20:11:48.397Z,57.68
2023-07-30T20:14:15.078Z,57.96
2023-07-30T20:16:41.979Z,58.11
2023-07-30T20:19:08.825Z,57.92
2023-07-30T20:21:35.351Z,57.81
2023-07-30T20:24:01.912Z,57.62
2023-07-30T20:26:28.444Z,57.65
2023-07-30T20:28:59.720Z,58.03
2023-07-30T20:31:26.330Z,57.69
2023-07-30T20:33:52.911Z,57.74
2023-07-30T20:36:19.476Z,58.06
2023-07-30T20:38:45.981Z,58.12
2023-07-30T20:41:12.587Z,57.68
2023-07-30T20:43:42.921Z,57.87
2023-07-30T20:46:13.496Z,57.85
2023-07-30T20:48:41.845Z,57.83
2023-07-30T20:51:11.760Z,57.89
2023-07-30T20:53:38.280Z,58.22
2023-07-30T20:56:05.059Z,58.22
2023-07-30T20:58:31.666Z,58.04
2023-07-30T21:00:58.231Z,57.82
2023-07-30T21:03:24.884Z,57.82
2023-07-30T21:05:51.474Z,57.72
2023-07-30T21:08:18.038Z,58.12
2023-07-30T21:10:44.603Z,58.07
2023-07-30T21:13:11.116Z,57.90
2023-07-30T21:15:37.682Z,58.04
2023-07-30T21:18:04.487Z,58.03
2023-07-30T21:20:31.024Z,57.72
2023-07-30T21:22:57.575Z,57.78
2023-07-30T21:25:24.433Z,58.23
2023-07-30T21:27:51.424Z,57.95
2023-07-30T21:30:19.358Z,58.08
2023-07-30T21:32:45.969Z,58.22
2023-07-30T21:35:12.642Z,58.04
2023-07-30T21:37:39.198Z,57.79
2023-07-30T21:40:06.602Z,57.99
2023-07-30T21:42:33.205Z,58.27
2023-07-30T21:44:59.771Z,57.89
2023-07-30T21:47:26.370Z,57.88
2023-07-30T21:49:53.045Z,57.97
2023-07-30T21:52:26.541Z,57.95
2023-07-30T21:54:53.187Z,58.05
2023-07-30T21:57:20.018Z,57.88
2023-07-30T21:59:50.545Z,58.11
2023-07-30T22:02:17.719Z,57.84
2023-07-30T22:04:44.326Z,58.32
2023-07-30T22:07:11.290Z,57.79
2023-07-30T22:09:41.392Z,58.34
2023-07-30T22:12:08.565Z,57.96
2023-07-30T22:14:35.116Z,58.15
2023-07-30T22:17:01.749Z,58.34
2023-07-30T22:19:28.372Z,58.22
2023-07-30T22:21:54.871Z,58.14
2023-07-30T22:24:21.410Z,58.27
2023-07-30T22:26:49.356Z,57.90
2023-07-30T22:29:15.907Z,58.05
2023-07-30T22:31:42.716Z,58.32
2023-07-30T22:34:09.282Z,58.23
2023-07-30T22:36:35.919Z,58.15
2023-07-30T22:39:02.603Z,57.86
2023-07-30T22:41:29.164Z,58.34
2023-07-30T22:43:57.409Z,57.90
2023-07-30T22:46:24.082Z,57.86
2023-07-30T22:48:50.729Z,58.27
2023-07-30T22:51:17.304Z,58.10
2023-07-30T22:53:43.807Z,58.41
2023-07-30T22:56:10.375Z,58.27
2023-07-30T22:58:37.166Z,58.07
2023-07-30T23:03:55.748Z,58.16
2023-07-30T23:06:22.347Z,58.33
2023-07-30T23:08:49.012Z,58.15
2023-07-30T23:11:16.672Z,58.01
2023-07-30T23:13:43.168Z,58.52
2023-07-30T23:16:09.772Z,58.50
2023-07-30T23:18:37.513Z,58.54
2023-07-30T23:21:04.268Z,58.48
2023-07-30T23:23:30.787Z,58.26
2023-07-30T23:25:57.339Z,58.37
2023-07-30T23:28:23.916Z,58.40
2023-07-30T23:30:50.529Z,58.22
2023-07-30T23:33:17.103Z,58.69
2023-07-30T23:35:43.722Z,58.11
2023-07-30T23:38:10.236Z,58.03
2023-07-30T23:40:36.764Z,58.00
2023-07-30T23:43:03.432Z,58.05
2023-07-30T23:45:30.127Z,58.63
2023-07-30T23:47:56.737Z,58.01
2023-07-30T23:50:23.366Z,58.01
2023-07-30T23:52:50.092Z,58.09
2023-07-30T23:55:16.641Z,58.38
2023-07-30T23:57:43.169Z,58.18
